Time;durP1;ratioP1;P1;durP2;ratioP2;P2;SDS_P1;SDS_P2;PMS_P1;PMS_P2;Temp;Humidity;BMP_temperature;BMP_pressure;BME280_temperature;BME280_humidity;BME280_pressure;Samples;Min_cycle;Max_cycle;Signal;HPM_P1;HPM_P2
2022/09/18 00:01:39;;;;;;;2.33;0.60;;;;;;;;;;5010704;28;20213;-61
2022/09/18 00:04:07;;;;;;;0.80;0.50;;;;;;;;;;5013388;28;20217;-61
2022/09/18 00:06:37;;;;;;;0.87;0.60;;;;;;;;;;5018623;28;20224;-61
2022/09/18 00:09:05;;;;;;;0.50;0.50;;;;;;;;;;5025032;28;20215;-61
2022/09/18 00:11:36;;;;;;;0.53;0.40;;;;;;;;;;5022348;28;20583;-61
2022/09/18 00:14:05;;;;;;;4.07;0.60;;;;;;;;;;5009785;28;20209;-61
2022/09/18 00:16:32;;;;;;;0.43;0.43;;;;;;;;;;5024391;28;20204;-61
2022/09/18 00:18:59;;;;;;;0.90;0.60;;;;;;;;;;5021266;28;20604;-60
2022/09/18 00:21:27;;;;;;;0.30;0.30;;;;;;;;;;5014176;28;20204;-59
2022/09/18 00:23:55;;;;;;;2.63;0.50;;;;;;;;;;5023440;28;20223;-60
2022/09/18 00:26:24;;;;;;;3.30;0.53;;;;;;;;;;5019733;28;20224;-59
2022/09/18 00:28:53;;;;;;;0.60;0.60;;;;;;;;;;5012863;28;20220;-59
2022/09/18 00:31:22;;;;;;;2.50;0.50;;;;;;;;;;5020876;28;20204;-59
2022/09/18 00:33:49;;;;;;;1.50;0.60;;;;;;;;;;5009335;28;20236;-60
2022/09/18 00:36:17;;;;;;;0.43;0.43;;;;;;;;;;5010065;28;20224;-60
2022/09/18 00:38:45;;;;;;;0.93;0.50;;;;;;;;;;5010163;28;20293;-60
2022/09/18 00:41:13;;;;;;;1.20;0.40;;;;;;;;;;5010757;28;20220;-60
2022/09/18 00:43:41;;;;;;;1.57;0.70;;;;;;;;;;5010245;28;20208;-59
2022/09/18 00:46:16;;;;;;;0.30;0.30;;;;;;;;;;5019716;28;20956;-59
2022/09/18 00:48:46;;;;;;;0.30;0.30;;;;;;;;;;5013466;28;20208;-60
2022/09/18 00:51:15;;;;;;;0.90;0.90;;;;;;;;;;5016231;28;20204;-59
2022/09/18 00:53:45;;;;;;;0.80;0.60;;;;;;;;;;5023753;28;20330;-60
2022/09/18 00:56:13;;;;;;;0.27;0.27;;;;;;;;;;5023738;28;20201;-60
2022/09/18 00:58:41;;;;;;;0.30;0.30;;;;;;;;;;5013991;28;20227;-60
2022/09/18 01:01:09;;;;;;;0.47;0.37;;;;;;;;;;5010243;28;20209;-60
2022/09/18 01:03:36;;;;;;;0.40;0.40;;;;;;;;;;5017369;28;20231;-60
2022/09/18 01:06:10;;;;;;;1.90;0.40;;;;;;;;;;5016143;28;20231;-60
2022/09/18 01:08:39;;;;;;;1.17;0.50;;;;;;;;;;5025013;28;21031;-60
2022/09/18 01:11:10;;;;;;;0.60;0.60;;;;;;;;;;5015855;28;20644;-60
2022/09/18 01:13:42;;;;;;;4.40;0.40;;;;;;;;;;5018787;28;20211;-60
2022/09/18 01:16:14;;;;;;;0.50;0.50;;;;;;;;;;5017206;28;20305;-60
2022/09/18 01:18:45;;;;;;;0.43;0.43;;;;;;;;;;5022687;28;20274;-60
2022/09/18 01:21:13;;;;;;;0.93;0.50;;;;;;;;;;5014552;28;20209;-60
2022/09/18 01:23:57;;;;;;;3.13;0.57;;;;;;;;;;5026387;28;20200;-60
2022/09/18 01:26:36;;;;;;;3.20;0.30;;;;;;;;;;5021461;28;20356;-60
2022/09/18 01:29:09;;;;;;;0.43;0.43;;;;;;;;;;5026359;28;20212;-60
2022/09/18 01:31:39;;;;;;;0.37;0.30;;;;;;;;;;5020391;28;20208;-60
2022/09/18 01:34:10;;;;;;;0.60;0.60;;;;;;;;;;5022700;28;20251;-60
2022/09/18 01:36:38;;;;;;;0.50;0.40;;;;;;;;;;5023098;28;20619;-60
2022/09/18 01:39:10;;;;;;;0.40;0.40;;;;;;;;;;5022890;28;20219;-60
2022/09/18 01:41:40;;;;;;;0.63;0.30;;;;;;;;;;5014547;28;20205;-60
2022/09/18 01:44:10;;;;;;;2.57;0.47;;;;;;;;;;5013627;28;20209;-60
2022/09/18 01:46:40;;;;;;;3.23;0.30;;;;;;;;;;5017873;28;20232;-60
2022/09/18 01:49:08;;;;;;;0.30;0.30;;;;;;;;;;5016035;28;20263;-61
2022/09/18 01:51:37;;;;;;;1.40;0.50;;;;;;;;;;5017105;28;20242;-60
2022/09/18 01:54:06;;;;;;;0.27;0.27;;;;;;;;;;5023576;28;20240;-61
2022/09/18 01:56:36;;;;;;;1.80;0.37;;;;;;;;;;5027845;28;20201;-60
2022/09/18 01:59:04;;;;;;;0.27;0.27;;;;;;;;;;5028282;28;20204;-60
2022/09/18 02:01:34;;;;;;;4.90;0.40;;;;;;;;;;5022295;28;20256;-59
2022/09/18 02:04:03;;;;;;;0.93;0.47;;;;;;;;;;5014696;28;20648;-60
2022/09/18 02:06:32;;;;;;;2.10;0.50;;;;;;;;;;5015696;28;20220;-60
2022/09/18 02:09:00;;;;;;;3.30;0.40;;;;;;;;;;5024162;28;20262;-59
2022/09/18 02:11:27;;;;;;;0.70;0.30;;;;;;;;;;5016751;28;20603;-60
2022/09/18 02:13:58;;;;;;;0.20;0.20;;;;;;;;;;5026883;28;20606;-59
2022/09/18 02:16:29;;;;;;;0.37;0.37;;;;;;;;;;5012129;28;20218;-59
2022/09/18 02:18:58;;;;;;;0.20;0.20;;;;;;;;;;5012612;28;20287;-59
2022/09/18 02:21:27;;;;;;;0.20;0.20;;;;;;;;;;5023214;28;20288;-60
2022/09/18 02:23:55;;;;;;;0.20;0.20;;;;;;;;;;5017517;28;20228;-60
2022/09/18 02:26:22;;;;;;;1.10;0.40;;;;;;;;;;5025028;28;20232;-60
2022/09/18 02:28:52;;;;;;;1.80;0.27;;;;;;;;;;5013434;28;20205;-59
2022/09/18 02:31:20;;;;;;;0.30;0.30;;;;;;;;;;5015492;28;20553;-59
2022/09/18 02:33:47;;;;;;;0.20;0.20;;;;;;;;;;5015722;28;20707;-60
2022/09/18 02:36:25;;;;;;;0.67;0.40;;;;;;;;;;5022435;28;20205;-59
2022/09/18 02:38:56;;;;;;;2.03;0.40;;;;;;;;;;5015785;28;20216;-60
2022/09/18 02:41:28;;;;;;;0.87;0.27;;;;;;;;;;5012293;28;20205;-60
2022/09/18 02:43:58;;;;;;;1.40;0.27;;;;;;;;;;5023750;28;20243;-60
2022/09/18 02:46:31;;;;;;;0.90;0.40;;;;;;;;;;5017381;28;20236;-60
2022/09/18 02:49:03;;;;;;;1.47;0.37;;;;;;;;;;5022497;28;20212;-60
2022/09/18 02:51:32;;;;;;;0.20;0.20;;;;;;;;;;5015259;28;20624;-59
2022/09/18 02:54:03;;;;;;;0.20;0.20;;;;;;;;;;5024527;28;20205;-59
2022/09/18 02:56:34;;;;;;;0.27;0.20;;;;;;;;;;5021901;28;20472;-60
2022/09/18 02:59:04;;;;;;;0.30;0.20;;;;;;;;;;5023108;28;20209;-60
2022/09/18 03:01:32;;;;;;;0.30;0.30;;;;;;;;;;5026165;28;20239;-60
2022/09/18 03:04:02;;;;;;;0.77;0.30;;;;;;;;;;5013138;28;20267;-59
2022/09/18 03:06:29;;;;;;;0.13;0.13;;;;;;;;;;5012715;28;20599;-60
2022/09/18 03:08:58;;;;;;;0.17;0.17;;;;;;;;;;5025088;28;20201;-60
2022/09/18 03:11:25;;;;;;;0.87;0.30;;;;;;;;;;5018008;28;20354;-59
2022/09/18 03:13:52;;;;;;;1.03;0.30;;;;;;;;;;5023605;28;20216;-60
2022/09/18 03:16:20;;;;;;;0.30;0.30;;;;;;;;;;5021503;28;20263;-59
2022/09/18 03:18:47;;;;;;;2.13;0.40;;;;;;;;;;5013486;28;20311;-60
2022/09/18 03:21:14;;;;;;;0.53;0.43;;;;;;;;;;5018038;28;20565;-60
2022/09/18 03:23:41;;;;;;;0.90;0.23;;;;;;;;;;5019143;28;20207;-59
2022/09/18 03:26:09;;;;;;;1.07;0.30;;;;;;;;;;5020647;28;20245;-59
2022/09/18 03:28:36;;;;;;;0.30;0.30;;;;;;;;;;5021332;28;20677;-60
2022/09/18 03:31:03;;;;;;;0.20;0.20;;;;;;;;;;5010321;28;20287;-60
2022/09/18 03:33:30;;;;;;;0.20;0.20;;;;;;;;;;5010507;28;20197;-60
2022/09/18 03:35:57;;;;;;;0.20;0.20;;;;;;;;;;5017835;28;20994;-60
2022/09/18 03:38:24;;;;;;;0.20;0.20;;;;;;;;;;5019977;28;20663;-59
2022/09/18 03:40:51;;;;;;;0.10;0.10;;;;;;;;;;5026574;28;20215;-60
2022/09/18 03:43:19;;;;;;;0.23;0.23;;;;;;;;;;5021787;28;20201;-60
2022/09/18 03:45:47;;;;;;;0.40;0.20;;;;;;;;;;5024311;28;20211;-60
2022/09/18 03:48:14;;;;;;;0.97;0.23;;;;;;;;;;5022345;28;20423;-59
2022/09/18 03:50:41;;;;;;;0.20;0.20;;;;;;;;;;5015803;28;20683;-59
2022/09/18 03:53:08;;;;;;;0.10;0.10;;;;;;;;;;5025094;28;20211;-59
2022/09/18 03:55:36;;;;;;;0.20;0.20;;;;;;;;;;5010525;28;20209;-59
2022/09/18 03:58:03;;;;;;;0.13;0.13;;;;;;;;;;5023166;28;20204;-60
2022/09/18 04:00:31;;;;;;;1.30;0.30;;;;;;;;;;5016510;28;20205;-60
2022/09/18 04:02:58;;;;;;;0.27;0.27;;;;;;;;;;5011165;28;20232;-60
2022/09/18 04:05:25;;;;;;;0.10;0.10;;;;;;;;;;5020404;28;20208;-59
2022/09/18 04:07:53;;;;;;;0.20;0.20;;;;;;;;;;5023942;28;20225;-60
2022/09/18 04:10:21;;;;;;;0.30;0.30;;;;;;;;;;5012037;28;20205;-59
2022/09/18 04:12:48;;;;;;;0.10;0.10;;;;;;;;;;5017491;28;20245;-59
2022/09/18 04:15:16;;;;;;;0.40;0.20;;;;;;;;;;5015256;28;20211;-60
2022/09/18 04:17:44;;;;;;;0.33;0.30;;;;;;;;;;5026895;28;20217;-60
2022/09/18 04:20:11;;;;;;;0.30;0.30;;;;;;;;;;5018825;28;20205;-60
2022/09/18 04:22:38;;;;;;;0.10;0.10;;;;;;;;;;5016243;28;20858;-60
2022/09/18 04:25:05;;;;;;;0.10;0.10;;;;;;;;;;5013707;28;20248;-60
2022/09/18 04:27:35;;;;;;;0.53;0.23;;;;;;;;;;5018425;28;20275;-60
2022/09/18 04:30:02;;;;;;;0.10;0.10;;;;;;;;;;5020028;28;20220;-60
2022/09/18 04:32:29;;;;;;;0.17;0.17;;;;;;;;;;5009393;28;20218;-59
2022/09/18 04:34:57;;;;;;;0.57;0.30;;;;;;;;;;5019190;28;20283;-59
2022/09/18 04:37:24;;;;;;;0.10;0.10;;;;;;;;;;5008826;28;20664;-59
2022/09/18 04:39:51;;;;;;;1.90;0.20;;;;;;;;;;5012420;28;20213;-59
2022/09/18 04:42:18;;;;;;;0.10;0.10;;;;;;;;;;5008374;28;20208;-60
2022/09/18 04:44:46;;;;;;;0.10;0.10;;;;;;;;;;5013727;28;20216;-60
2022/09/18 04:47:13;;;;;;;0.10;0.10;;;;;;;;;;5009500;28;20227;-59
2022/09/18 04:49:40;;;;;;;0.20;0.20;;;;;;;;;;5018654;28;20236;-60
2022/09/18 04:52:08;;;;;;;0.20;0.20;;;;;;;;;;5009213;28;20563;-60
2022/09/18 04:54:36;;;;;;;0.20;0.20;;;;;;;;;;5016649;28;20209;-60
2022/09/18 04:57:04;;;;;;;0.10;0.10;;;;;;;;;;5013239;28;20225;-60
2022/09/18 04:59:31;;;;;;;0.20;0.13;;;;;;;;;;5010096;28;20204;-60
2022/09/18 05:01:58;;;;;;;0.23;0.23;;;;;;;;;;5012599;28;20266;-59
2022/09/18 05:04:25;;;;;;;0.10;0.10;;;;;;;;;;5022769;28;20201;-60
2022/09/18 05:06:52;;;;;;;3.70;0.17;;;;;;;;;;5009248;28;20229;-60
2022/09/18 05:09:20;;;;;;;0.10;0.10;;;;;;;;;;5009631;28;20212;-59
2022/09/18 05:11:47;;;;;;;0.20;0.20;;;;;;;;;;5024370;28;20861;-59
2022/09/18 05:14:14;;;;;;;0.20;0.20;;;;;;;;;;5024833;28;20208;-60
2022/09/18 05:16:41;;;;;;;0.10;0.10;;;;;;;;;;5026362;28;20196;-60
2022/09/18 05:19:08;;;;;;;0.10;0.10;;;;;;;;;;5019223;28;20235;-60
2022/09/18 05:21:35;;;;;;;0.10;0.10;;;;;;;;;;5017113;28;20209;-59
2022/09/18 05:24:03;;;;;;;0.20;0.20;;;;;;;;;;5017139;28;20208;-60
2022/09/18 05:26:31;;;;;;;0.10;0.10;;;;;;;;;;5016678;28;20279;-59
2022/09/18 05:28:58;;;;;;;0.20;0.20;;;;;;;;;;5015421;28;20205;-60
2022/09/18 05:31:25;;;;;;;0.10;0.10;;;;;;;;;;5023661;28;20204;-60
2022/09/18 05:33:52;;;;;;;0.60;0.20;;;;;;;;;;5014896;28;20205;-60
2022/09/18 05:36:19;;;;;;;0.20;0.20;;;;;;;;;;5023852;28;20745;-60
2022/09/18 05:38:46;;;;;;;0.37;0.17;;;;;;;;;;5018935;28;20262;-60
2022/09/18 05:41:13;;;;;;;0.17;0.17;;;;;;;;;;5016188;28;20208;-59
2022/09/18 05:43:45;;;;;;;0.00;0.00;;;;;;;;;;5023219;28;20208;-60
2022/09/18 05:46:13;;;;;;;0.23;0.20;;;;;;;;;;5025206;28;20262;-60
2022/09/18 05:48:40;;;;;;;0.10;0.10;;;;;;;;;;5012188;28;20255;-59
2022/09/18 05:51:07;;;;;;;0.20;0.13;;;;;;;;;;5015557;28;20209;-60
2022/09/18 05:53:34;;;;;;;0.20;0.20;;;;;;;;;;5014039;28;20201;-59
2022/09/18 05:56:01;;;;;;;0.20;0.20;;;;;;;;;;5020171;28;20216;-59
2022/09/18 05:58:28;;;;;;;0.10;0.10;;;;;;;;;;5024844;28;20201;-59
2022/09/18 06:01:00;;;;;;;0.30;0.17;;;;;;;;;;5013640;28;20211;-59
2022/09/18 06:03:27;;;;;;;0.10;0.10;;;;;;;;;;5014176;28;20267;-58
2022/09/18 06:05:55;;;;;;;0.07;0.07;;;;;;;;;;5016803;28;20205;-59
2022/09/18 06:08:22;;;;;;;1.43;0.10;;;;;;;;;;5013195;28;20232;-59
2022/09/18 06:10:50;;;;;;;0.10;0.10;;;;;;;;;;5013842;28;20201;-59
2022/09/18 06:13:18;;;;;;;0.10;0.07;;;;;;;;;;5019504;28;20276;-60
2022/09/18 06:15:46;;;;;;;0.30;0.10;;;;;;;;;;5015722;28;20204;-60
2022/09/18 06:18:15;;;;;;;0.30;0.17;;;;;;;;;;5020245;28;20217;-59
2022/09/18 06:20:42;;;;;;;0.10;0.10;;;;;;;;;;5013413;28;20216;-59
2022/09/18 06:23:09;;;;;;;0.50;0.10;;;;;;;;;;5023620;28;20220;-60
2022/09/18 06:25:36;;;;;;;1.30;0.20;;;;;;;;;;5015614;28;20245;-60
2022/09/18 06:28:05;;;;;;;0.10;0.10;;;;;;;;;;5011069;28;20308;-59
2022/09/18 06:30:33;;;;;;;0.10;0.10;;;;;;;;;;5013936;28;20271;-59
2022/09/18 06:33:01;;;;;;;0.10;0.10;;;;;;;;;;5021838;28;20211;-61
2022/09/18 06:35:29;;;;;;;0.00;0.00;;;;;;;;;;5021393;28;20660;-59
2022/09/18 06:38:00;;;;;;;1.33;0.20;;;;;;;;;;5026144;28;20224;-59
2022/09/18 06:40:27;;;;;;;0.10;0.10;;;;;;;;;;5023086;28;20205;-59
2022/09/18 06:42:55;;;;;;;0.10;0.10;;;;;;;;;;5018150;28;20208;-59
2022/09/18 06:45:23;;;;;;;0.10;0.10;;;;;;;;;;5011148;28;20328;-59
2022/09/18 06:47:53;;;;;;;0.60;0.20;;;;;;;;;;5022078;28;20220;-59
2022/09/18 06:50:20;;;;;;;0.10;0.10;;;;;;;;;;5026186;28;20744;-60
2022/09/18 06:52:49;;;;;;;0.00;0.00;;;;;;;;;;5014124;28;20211;-60
2022/09/18 06:55:16;;;;;;;0.00;0.00;;;;;;;;;;5011460;28;20201;-59
2022/09/18 06:57:43;;;;;;;1.20;0.10;;;;;;;;;;5010470;28;20204;-60
2022/09/18 07:00:11;;;;;;;0.03;0.03;;;;;;;;;;5010677;28;20213;-59
2022/09/18 07:02:38;;;;;;;0.00;0.00;;;;;;;;;;5011624;28;20604;-59
2022/09/18 07:05:05;;;;;;;0.00;0.00;;;;;;;;;;5017894;28;20208;-58
2022/09/18 07:07:32;;;;;;;0.10;0.10;;;;;;;;;;5013670;28;20316;-59
2022/09/18 07:10:01;;;;;;;0.00;0.00;;;;;;;;;;5018183;28;20303;-60
2022/09/18 07:12:28;;;;;;;0.10;0.10;;;;;;;;;;5020384;28;20212;-60
2022/09/18 07:14:58;;;;;;;1.43;0.00;;;;;;;;;;5016074;28;20215;-59
2022/09/18 07:17:25;;;;;;;0.00;0.00;;;;;;;;;;5011697;28;20930;-59
2022/09/18 07:19:52;;;;;;;0.83;0.10;;;;;;;;;;5008320;28;20388;-59
2022/09/18 07:22:19;;;;;;;0.10;0.10;;;;;;;;;;5011525;28;20205;-59
2022/09/18 07:24:49;;;;;;;0.10;0.10;;;;;;;;;;5018393;28;20310;-58
2022/09/18 07:27:21;;;;;;;0.10;0.10;;;;;;;;;;5025966;28;20230;-59
2022/09/18 07:29:48;;;;;;;0.00;0.00;;;;;;;;;;5015579;28;20684;-59
2022/09/18 07:32:15;;;;;;;0.20;0.10;;;;;;;;;;5012880;28;20198;-58
2022/09/18 07:34:42;;;;;;;0.07;0.07;;;;;;;;;;5022255;28;20215;-59
2022/09/18 07:37:09;;;;;;;0.43;0.20;;;;;;;;;;5017262;28;20690;-60
2022/09/18 07:39:36;;;;;;;0.00;0.00;;;;;;;;;;5013933;28;20282;-62
2022/09/18 07:42:03;;;;;;;0.10;0.10;;;;;;;;;;5011064;28;20913;-60
2022/09/18 07:44:33;;;;;;;0.27;0.20;;;;;;;;;;5018333;28;20200;-60
2022/09/18 07:47:00;;;;;;;0.10;0.10;;;;;;;;;;5020322;28;20209;-60
2022/09/18 07:49:27;;;;;;;0.00;0.00;;;;;;;;;;5009032;28;20209;-59
2022/09/18 07:51:54;;;;;;;3.63;0.10;;;;;;;;;;5012150;28;20307;-60
2022/09/18 07:54:21;;;;;;;0.00;0.00;;;;;;;;;;5010452;28;20220;-59
2022/09/18 07:56:48;;;;;;;0.80;0.10;;;;;;;;;;5013693;28;20209;-59
2022/09/18 07:59:15;;;;;;;0.20;0.20;;;;;;;;;;5017474;28;20201;-59
2022/09/18 08:01:43;;;;;;;0.10;0.10;;;;;;;;;;5019597;28;20204;-59
2022/09/18 08:04:10;;;;;;;0.47;0.20;;;;;;;;;;5009776;28;20205;-61
2022/09/18 08:06:37;;;;;;;0.10;0.10;;;;;;;;;;5021452;28;20212;-60
2022/09/18 08:09:04;;;;;;;0.43;0.20;;;;;;;;;;5026352;28;20235;-60
2022/09/18 08:11:31;;;;;;;0.10;0.10;;;;;;;;;;5028151;28;20670;-60
2022/09/18 08:13:59;;;;;;;1.33;0.20;;;;;;;;;;5011627;28;20205;-59
2022/09/18 08:16:26;;;;;;;0.10;0.10;;;;;;;;;;5022874;28;20634;-60
2022/09/18 08:18:56;;;;;;;0.10;0.10;;;;;;;;;;5027001;28;20224;-60
2022/09/18 08:21:24;;;;;;;0.10;0.10;;;;;;;;;;5023409;28;20296;-59
2022/09/18 08:23:51;;;;;;;0.40;0.10;;;;;;;;;;5008207;28;20648;-59
2022/09/18 08:26:18;;;;;;;0.27;0.27;;;;;;;;;;5010336;28;20208;-59
2022/09/18 08:28:45;;;;;;;0.10;0.10;;;;;;;;;;5009316;28;20704;-60
2022/09/18 08:31:12;;;;;;;0.00;0.00;;;;;;;;;;5011873;28;20223;-59
2022/09/18 08:33:39;;;;;;;0.10;0.10;;;;;;;;;;5024360;28;20216;-59
2022/09/18 08:36:08;;;;;;;0.20;0.20;;;;;;;;;;5009033;28;20216;-59
2022/09/18 08:38:35;;;;;;;0.20;0.20;;;;;;;;;;5008753;28;20270;-59
2022/09/18 08:41:07;;;;;;;0.23;0.10;;;;;;;;;;5018536;28;20273;-59
2022/09/18 08:43:43;;;;;;;0.27;0.27;;;;;;;;;;5024717;28;20215;-59
2022/09/18 08:46:13;;;;;;;0.10;0.10;;;;;;;;;;5026419;28;20230;-59
2022/09/18 08:48:45;;;;;;;0.10;0.10;;;;;;;;;;5024290;28;20228;-58
2022/09/18 08:51:18;;;;;;;0.30;0.20;;;;;;;;;;5027004;28;20204;-59
2022/09/18 08:53:46;;;;;;;0.27;0.27;;;;;;;;;;5020725;28;20208;-59
2022/09/18 08:56:16;;;;;;;0.47;0.40;;;;;;;;;;5007249;28;20209;-59
2022/09/18 08:58:45;;;;;;;0.40;0.40;;;;;;;;;;5015441;28;20207;-58
2022/09/18 09:01:15;;;;;;;0.33;0.33;;;;;;;;;;5016519;28;20212;-63
2022/09/18 09:03:49;;;;;;;0.40;0.40;;;;;;;;;;5018745;28;20205;-62
2022/09/18 09:06:25;;;;;;;0.40;0.40;;;;;;;;;;5011548;28;20200;-61
2022/09/18 09:09:03;;;;;;;1.53;0.30;;;;;;;;;;5019342;28;20224;-62
2022/09/18 09:11:34;;;;;;;0.50;0.50;;;;;;;;;;5013419;28;20243;-59
2022/09/18 09:14:16;;;;;;;0.63;0.50;;;;;;;;;;5011456;28;20209;-60
2022/09/18 09:16:43;;;;;;;0.53;0.53;;;;;;;;;;5006016;28;20259;-60
2022/09/18 09:19:19;;;;;;;1.42;0.68;;;;;;;;;;5010250;28;20250;-60
2022/09/18 09:21:51;;;;;;;0.50;0.50;;;;;;;;;;5023141;28;20204;-60
2022/09/18 09:24:26;;;;;;;0.50;0.50;;;;;;;;;;5022909;28;20245;-60
2022/09/18 09:26:55;;;;;;;0.63;0.63;;;;;;;;;;5011803;28;20208;-60
2022/09/18 09:29:23;;;;;;;2.50;0.60;;;;;;;;;;5004821;28;20397;-60
2022/09/18 09:31:52;;;;;;;0.83;0.50;;;;;;;;;;5015900;28;20228;-60
2022/09/18 09:34:22;;;;;;;1.60;0.53;;;;;;;;;;5010666;28;20201;-60
2022/09/18 09:36:53;;;;;;;0.67;0.67;;;;;;;;;;5005411;28;20267;-60
2022/09/18 09:39:22;;;;;;;1.50;0.53;;;;;;;;;;5007388;28;20528;-60
2022/09/18 09:41:52;;;;;;;0.93;0.60;;;;;;;;;;5006774;28;20220;-59
2022/09/18 09:44:25;;;;;;;0.50;0.50;;;;;;;;;;5007070;28;20217;-59
2022/09/18 09:46:59;;;;;;;0.50;0.50;;;;;;;;;;5007178;28;20217;-60
2022/09/18 09:49:27;;;;;;;1.00;0.60;;;;;;;;;;5007012;28;20696;-60
2022/09/18 09:52:02;;;;;;;0.40;0.40;;;;;;;;;;5018191;28;20196;-59
2022/09/18 09:54:29;;;;;;;0.87;0.50;;;;;;;;;;5020037;28;20687;-60
2022/09/18 09:57:03;;;;;;;0.45;0.45;;;;;;;;;;5007830;28;20208;-59
2022/09/18 09:59:34;;;;;;;1.03;0.40;;;;;;;;;;5017310;28;20785;-59
2022/09/18 10:02:08;;;;;;;0.45;0.45;;;;;;;;;;5029494;28;20208;-59
2022/09/18 10:04:39;;;;;;;0.97;0.57;;;;;;;;;;5027321;28;20199;-61
2022/09/18 10:07:13;;;;;;;0.30;0.30;;;;;;;;;;5029478;28;20702;-60
2022/09/18 10:09:45;;;;;;;0.47;0.47;;;;;;;;;;5031004;28;20231;-60
2022/09/18 10:12:17;;;;;;;0.30;0.30;;;;;;;;;;5028487;28;20213;-60
2022/09/18 10:14:44;;;;;;;1.08;0.43;;;;;;;;;;5030213;28;20212;-60
2022/09/18 10:17:12;;;;;;;0.38;0.38;;;;;;;;;;5029993;28;20227;-60
2022/09/18 10:19:41;;;;;;;2.30;0.50;;;;;;;;;;5026723;28;20200;-59
2022/09/18 10:22:12;;;;;;;0.30;0.30;;;;;;;;;;5030114;28;20214;-60
2022/09/18 10:24:43;;;;;;;0.40;0.40;;;;;;;;;;5022964;28;20759;-59
2022/09/18 10:27:11;;;;;;;0.60;0.47;;;;;;;;;;5010255;28;20258;-60
2022/09/18 10:29:39;;;;;;;0.85;0.55;;;;;;;;;;5009777;28;20287;-59
2022/09/18 10:32:09;;;;;;;1.23;0.50;;;;;;;;;;5010111;28;20299;-59
2022/09/18 10:34:40;;;;;;;0.20;0.20;;;;;;;;;;5010111;28;20227;-58
2022/09/18 10:37:13;;;;;;;0.32;0.30;;;;;;;;;;5010078;28;20236;-58
2022/09/18 10:39:48;;;;;;;0.20;0.20;;;;;;;;;;5010110;28;20244;-58
2022/09/18 10:42:17;;;;;;;0.35;0.20;;;;;;;;;;5009577;28;20259;-59
2022/09/18 10:44:49;;;;;;;0.10;0.10;;;;;;;;;;5022776;28;20208;-59
2022/09/18 10:47:20;;;;;;;1.20;0.50;;;;;;;;;;5029678;28;20215;-61
2022/09/18 10:49:50;;;;;;;0.20;0.20;;;;;;;;;;5023180;28;20224;-59
2022/09/18 10:52:23;;;;;;;1.05;0.32;;;;;;;;;;5013636;28;20215;-59
2022/09/18 10:55:03;;;;;;;0.17;0.17;;;;;;;;;;5020263;28;20216;-58
2022/09/18 10:57:32;;;;;;;0.40;0.40;;;;;;;;;;5018498;28;20809;-56
2022/09/18 10:59:59;;;;;;;0.35;0.32;;;;;;;;;;5028666;28;20205;-58
2022/09/18 11:02:28;;;;;;;0.40;0.30;;;;;;;;;;5013786;28;20213;-59
2022/09/18 11:04:55;;;;;;;0.93;0.70;;;;;;;;;;5023036;28;20211;-58
2022/09/18 11:07:23;;;;;;;0.75;0.75;;;;;;;;;;5009071;28;20213;-64
2022/09/18 11:09:50;;;;;;;0.60;0.60;;;;;;;;;;5010256;28;20236;-59
2022/09/18 11:12:19;;;;;;;2.30;0.30;;;;;;;;;;5026783;28;20212;-58
2022/09/18 11:14:49;;;;;;;0.53;0.53;;;;;;;;;;5012763;28;20711;-59
2022/09/18 11:17:21;;;;;;;0.20;0.20;;;;;;;;;;5015773;28;20219;-59
2022/09/18 11:19:50;;;;;;;0.30;0.30;;;;;;;;;;5027084;28;20200;-59
2022/09/18 11:22:32;;;;;;;0.87;0.30;;;;;;;;;;5028340;28;20223;-59
2022/09/18 11:25:07;;;;;;;2.70;0.65;;;;;;;;;;5022135;28;20987;-59
2022/09/18 11:27:46;;;;;;;1.00;1.00;;;;;;;;;;5029805;28;20643;-59
2022/09/18 11:30:17;;;;;;;0.52;0.30;;;;;;;;;;5029260;28;20272;-59
2022/09/18 11:32:46;;;;;;;0.40;0.40;;;;;;;;;;5025038;28;20200;-60
2022/09/18 11:35:15;;;;;;;1.05;0.40;;;;;;;;;;5009871;28;20728;-58
2022/09/18 11:37:45;;;;;;;0.82;0.40;;;;;;;;;;5027079;28;20774;-59
2022/09/18 11:40:18;;;;;;;0.30;0.30;;;;;;;;;;5022892;28;20209;-59
2022/09/18 11:42:47;;;;;;;0.43;0.43;;;;;;;;;;5007908;28;20205;-58
2022/09/18 11:45:28;;;;;;;0.70;0.70;;;;;;;;;;5009969;28;20200;-58
2022/09/18 11:47:58;;;;;;;0.55;0.50;;;;;;;;;;5011255;28;20231;-59
2022/09/18 11:50:26;;;;;;;1.58;1.10;;;;;;;;;;5022480;28;20287;-58
2022/09/18 11:52:53;;;;;;;0.60;0.60;;;;;;;;;;5010872;28;20205;-59
2022/09/18 11:55:26;;;;;;;0.57;0.57;;;;;;;;;;5022232;28;20307;-59
2022/09/18 11:57:56;;;;;;;0.30;0.30;;;;;;;;;;5013988;28;20296;-58
2022/09/18 12:00:24;;;;;;;0.40;0.40;;;;;;;;;;5009899;28;20201;-59
2022/09/18 12:02:58;;;;;;;0.40;0.40;;;;;;;;;;5009540;28;20237;-59
2022/09/18 12:05:28;;;;;;;1.35;0.60;;;;;;;;;;5009715;28;20296;-59
2022/09/18 12:08:02;;;;;;;0.40;0.40;;;;;;;;;;5010225;28;20216;-59
2022/09/18 12:10:38;;;;;;;1.60;0.40;;;;;;;;;;5016452;28;20290;-62
2022/09/18 12:13:16;;;;;;;1.20;0.47;;;;;;;;;;5026160;28;20204;-59
2022/09/18 12:15:47;;;;;;;2.95;0.60;;;;;;;;;;5009458;28;20204;-59
2022/09/18 12:18:16;;;;;;;0.85;0.30;;;;;;;;;;5009531;28;20276;-58
2022/09/18 12:20:46;;;;;;;0.77;0.50;;;;;;;;;;5014702;28;20200;-60
2022/09/18 12:23:14;;;;;;;2.67;0.43;;;;;;;;;;5029265;28;20212;-60
2022/09/18 12:25:44;;;;;;;1.30;0.52;;;;;;;;;;5014263;28;20291;-59
2022/09/18 12:28:17;;;;;;;0.30;0.30;;;;;;;;;;5028445;28;20902;-60
2022/09/18 12:30:47;;;;;;;0.30;0.30;;;;;;;;;;5026038;28;20201;-60
2022/09/18 12:33:32;;;;;;;0.30;0.30;;;;;;;;;;5009226;28;20271;-60
2022/09/18 12:36:06;;;;;;;0.40;0.40;;;;;;;;;;5012208;28;20208;-60
2022/09/18 12:38:40;;;;;;;0.82;0.45;;;;;;;;;;5028989;28;20227;-60
2022/09/18 12:41:16;;;;;;;2.75;0.52;;;;;;;;;;5012235;28;20274;-60
2022/09/18 12:44:00;;;;;;;0.50;0.50;;;;;;;;;;5025050;28;20243;-60
2022/09/18 12:46:33;;;;;;;0.63;0.40;;;;;;;;;;5009034;28;20212;-60
2022/09/18 12:49:10;;;;;;;0.40;0.40;;;;;;;;;;5009004;28;20232;-60
2022/09/18 12:51:42;;;;;;;0.35;0.35;;;;;;;;;;5014807;28;20349;-60
2022/09/18 12:54:20;;;;;;;0.30;0.30;;;;;;;;;;5016270;28;20209;-60
2022/09/18 12:56:57;;;;;;;0.40;0.40;;;;;;;;;;5009573;28;20209;-59
2022/09/18 12:59:31;;;;;;;0.47;0.47;;;;;;;;;;5019465;28;20254;-60
2022/09/18 13:02:00;;;;;;;0.50;0.50;;;;;;;;;;5012157;28;20667;-60
2022/09/18 13:04:29;;;;;;;0.65;0.40;;;;;;;;;;5007613;28;20212;-60
2022/09/18 13:06:58;;;;;;;2.35;1.60;;;;;;;;;;5023595;28;20211;-60
2022/09/18 13:09:28;;;;;;;2.05;1.70;;;;;;;;;;5022752;28;20229;-60
2022/09/18 13:11:58;;;;;;;0.43;0.43;;;;;;;;;;5012092;28;20243;-61
2022/09/18 13:14:27;;;;;;;0.57;0.40;;;;;;;;;;5006170;28;20209;-60
2022/09/18 13:16:57;;;;;;;0.63;0.60;;;;;;;;;;5009455;28;20197;-59
2022/09/18 13:19:27;;;;;;;0.43;0.35;;;;;;;;;;5004626;28;20279;-58
2022/09/18 13:21:54;;;;;;;0.52;0.38;;;;;;;;;;5012237;28;20215;-60
2022/09/18 13:24:23;;;;;;;0.47;0.47;;;;;;;;;;5021393;28;20241;-59
2022/09/18 13:26:51;;;;;;;2.15;0.30;;;;;;;;;;5008347;28;20243;-59
2022/09/18 13:29:37;;;;;;;0.55;0.20;;;;;;;;;;5008103;28;20228;-60
2022/09/18 13:32:05;;;;;;;0.50;0.50;;;;;;;;;;5010664;28;20208;-61
2022/09/18 13:34:32;;;;;;;0.55;0.55;;;;;;;;;;5021978;28;20208;-59
2022/09/18 13:37:05;;;;;;;0.65;0.65;;;;;;;;;;5029924;28;20204;-59
2022/09/18 13:39:33;;;;;;;0.85;0.60;;;;;;;;;;5030915;28;20299;-59
2022/09/18 13:42:01;;;;;;;0.50;0.50;;;;;;;;;;5030205;28;20236;-59
2022/09/18 13:44:29;;;;;;;0.60;0.60;;;;;;;;;;5031194;28;20209;-60
2022/09/18 13:46:57;;;;;;;0.40;0.40;;;;;;;;;;5027080;28;20204;-60
2022/09/18 13:49:29;;;;;;;0.50;0.50;;;;;;;;;;5028214;28;20311;-60
2022/09/18 13:51:56;;;;;;;0.85;0.45;;;;;;;;;;5019559;28;20628;-60
2022/09/18 13:54:28;;;;;;;0.32;0.32;;;;;;;;;;5010116;28;20779;-60
2022/09/18 13:57:18;;;;;;;0.40;0.40;;;;;;;;;;5010024;28;20228;-61
2022/09/18 13:59:47;;;;;;;0.22;0.22;;;;;;;;;;4999870;28;20209;-60
2022/09/18 14:02:25;;;;;;;0.50;0.50;;;;;;;;;;5010133;28;20588;-60
2022/09/18 14:05:05;;;;;;;0.52;0.43;;;;;;;;;;5011147;28;20279;-61
2022/09/18 14:07:42;;;;;;;1.80;1.70;;;;;;;;;;5011275;28;20638;-60
2022/09/18 14:10:21;;;;;;;3.22;2.83;;;;;;;;;;5011288;28;20247;-60
2022/09/18 14:13:02;;;;;;;0.55;0.55;;;;;;;;;;5014287;28;20291;-60
2022/09/18 14:15:29;;;;;;;0.75;0.75;;;;;;;;;;5030723;28;20216;-60
2022/09/18 14:18:05;;;;;;;0.40;0.40;;;;;;;;;;5012238;28;20264;-60
2022/09/18 14:20:34;;;;;;;1.73;0.50;;;;;;;;;;5007089;28;20205;-60
2022/09/18 14:23:16;;;;;;;1.52;0.40;;;;;;;;;;5013808;28;20220;-60
2022/09/18 14:25:44;;;;;;;0.40;0.40;;;;;;;;;;5009922;28;20241;-59
2022/09/18 14:28:13;;;;;;;0.50;0.50;;;;;;;;;;5009054;28;20205;-59
2022/09/18 14:30:40;;;;;;;0.30;0.30;;;;;;;;;;5008040;28;20232;-59
2022/09/18 14:33:17;;;;;;;2.03;0.60;;;;;;;;;;5011809;28;20217;-59
2022/09/18 14:35:51;;;;;;;0.40;0.40;;;;;;;;;;5015287;28;20212;-59
2022/09/18 14:38:24;;;;;;;0.55;0.55;;;;;;;;;;5010495;28;20216;-60
2022/09/18 14:40:53;;;;;;;0.55;0.50;;;;;;;;;;5010334;28;20255;-61
2022/09/18 14:43:22;;;;;;;2.17;0.52;;;;;;;;;;5017929;28;20208;-59
2022/09/18 14:45:49;;;;;;;0.45;0.45;;;;;;;;;;5013235;28;20312;-60
2022/09/18 14:48:27;;;;;;;0.63;0.40;;;;;;;;;;5011421;28;20247;-60
2022/09/18 14:51:00;;;;;;;0.47;0.47;;;;;;;;;;5013135;28;20224;-60
2022/09/18 14:53:28;;;;;;;2.05;0.50;;;;;;;;;;5026227;28;20209;-60
2022/09/18 14:55:56;;;;;;;1.10;1.10;;;;;;;;;;5014957;28;20275;-60
2022/09/18 14:58:23;;;;;;;1.00;1.00;;;;;;;;;;5009690;28;20228;-59